createdAt,value
2023-02-18T00:01:52.980Z,99785.75
2023-02-18T00:04:21.860Z,99773.78
2023-02-18T00:06:52.068Z,99762.03
2023-02-18T00:09:22.620Z,99763.81
2023-02-18T00:11:51.289Z,99770.03
2023-02-18T00:14:20.269Z,99761.00
2023-02-18T00:16:49.200Z,99757.06
2023-02-18T00:19:21.049Z,99758.84
2023-02-18T00:21:51.385Z,99748.66
2023-02-18T00:24:20.095Z,99752.16
2023-02-18T00:26:53.248Z,99752.28
2023-02-18T00:29:22.610Z,99753.97
2023-02-18T00:31:51.564Z,99747.22
2023-02-18T00:34:20.426Z,99762.63
2023-02-18T00:36:49.047Z,99748.25
2023-02-18T00:39:19.309Z,99748.25
2023-02-18T00:41:48.270Z,99749.13
2023-02-18T00:44:17.268Z,99747.47
2023-02-18T00:46:49.215Z,99746.63
2023-02-18T00:49:18.497Z,99751.69
2023-02-18T00:51:47.198Z,99750.00
2023-02-18T00:54:16.041Z,99727.94
2023-02-18T00:56:46.263Z,99741.59
2023-02-18T00:59:15.019Z,99735.63
2023-02-18T01:01:43.988Z,99735.63
2023-02-18T01:04:13.109Z,99727.13
2023-02-18T01:06:42.066Z,99722.03
2023-02-18T01:09:11.974Z,99712.69
2023-02-18T01:11:40.875Z,99714.38
2023-02-18T01:14:11.026Z,99725.47
2023-02-18T01:16:40.196Z,99714.44
2023-02-18T01:19:10.683Z,99718.69
2023-02-18T01:21:40.636Z,99717.00
2023-02-18T01:24:10.033Z,99726.34
2023-02-18T01:26:38.727Z,99719.50
2023-02-18T01:29:07.716Z,99711.06
2023-02-18T01:31:38.002Z,99711.94
2023-02-18T01:34:06.879Z,99711.13
2023-02-18T01:36:35.626Z,99711.97
2023-02-18T01:39:06.470Z,99705.22
2023-02-18T01:41:35.753Z,99706.94
2023-02-18T01:44:17.801Z,99705.22
2023-02-18T01:46:49.917Z,99706.06
2023-02-18T01:49:22.360Z,99718.00
2023-02-18T01:51:55.693Z,99704.38
2023-02-18T01:54:30.484Z,99704.41
2023-02-18T01:57:04.505Z,99708.69
2023-02-18T01:59:38.890Z,99711.22
2023-02-18T02:02:14.728Z,99705.25
2023-02-18T02:04:44.125Z,99705.28
2023-02-18T02:07:13.217Z,99711.22
2023-02-18T02:09:43.990Z,99709.53
2023-02-18T02:12:30.039Z,99700.16
2023-02-18T02:15:21.069Z,99704.47
2023-02-18T02:18:06.599Z,99696.81
2023-02-18T02:21:04.150Z,99707.84
2023-02-18T02:24:05.608Z,99711.28
2023-02-18T02:27:08.136Z,99716.34
2023-02-18T02:30:03.082Z,99709.56
2023-02-18T02:33:04.287Z,99712.09
2023-02-18T02:35:39.393Z,99722.31
2023-02-18T02:38:14.018Z,99732.53
2023-02-18T02:40:51.138Z,99733.38
2023-02-18T02:43:29.328Z,99728.31
2023-02-18T02:46:04.335Z,99726.59
2023-02-18T02:48:44.274Z,99755.47
2023-02-18T02:51:20.165Z,99757.19
2023-02-18T02:53:49.041Z,99760.53
2023-02-18T02:56:19.141Z,99763.13
2023-02-18T02:58:59.428Z,99767.31
2023-02-18T03:01:43.103Z,99780.84
2023-02-18T03:04:32.786Z,99793.56
2023-02-18T03:07:34.567Z,99813.13
2023-02-18T03:10:27.454Z,99802.94
2023-02-18T03:13:05.796Z,99806.31
2023-02-18T03:15:41.826Z,99813.09
2023-02-18T03:18:19.886Z,99804.63
2023-02-18T03:20:56.674Z,99796.09
2023-02-18T03:23:31.518Z,99802.06
2023-02-18T03:26:01.149Z,99813.94
2023-02-18T03:28:32.737Z,99816.50
2023-02-18T03:31:11.323Z,99813.91
2023-02-18T03:33:46.185Z,99812.16
2023-02-18T03:36:15.206Z,99813.03
2023-02-18T03:38:56.081Z,99802.75
2023-02-18T03:41:25.135Z,99813.84
2023-02-18T03:43:55.537Z,99816.34
2023-02-18T03:46:24.348Z,99818.03
2023-02-18T03:48:53.623Z,99825.63
2023-02-18T03:51:23.335Z,99827.41
2023-02-18T03:53:53.908Z,99816.34
2023-02-18T03:56:23.110Z,99812.09
2023-02-18T03:58:52.056Z,99820.56
2023-02-18T04:01:20.805Z,99828.13
2023-02-18T04:03:49.806Z,99821.31
2023-02-18T04:06:18.700Z,99822.22
2023-02-18T04:08:47.480Z,99826.50
2023-02-18T04:11:18.211Z,99833.25
2023-02-18T04:13:47.026Z,99845.97
2023-02-18T04:16:16.338Z,99838.28
2023-02-18T04:18:45.099Z,99829.75
2023-02-18T04:21:13.794Z,99819.50
2023-02-18T04:23:42.668Z,99815.16
2023-02-18T04:26:11.520Z,99815.13
2023-02-18T04:28:41.782Z,99815.97
2023-02-18T04:31:11.923Z,99821.03
2023-02-18T04:33:40.789Z,99815.09
2023-02-18T04:36:10.405Z,99810.84
2023-02-18T04:38:39.638Z,99804.03
2023-02-18T04:41:08.370Z,99811.63
2023-02-18T04:43:37.155Z,99809.91
2023-02-18T04:46:07.591Z,99803.06
2023-02-18T04:48:36.657Z,99797.09
2023-02-18T04:51:06.080Z,99812.31
2023-02-18T04:53:34.847Z,99817.31
2023-02-18T04:56:03.563Z,99819.91
2023-02-18T04:58:32.443Z,99825.84
2023-02-18T05:01:02.129Z,99819.19
2023-02-18T05:03:33.454Z,99819.22
2023-02-18T05:06:02.397Z,99825.25
2023-02-18T05:08:31.068Z,99824.50
2023-02-18T05:10:59.845Z,99825.34
2023-02-18T05:13:28.577Z,99827.06
2023-02-18T05:15:57.469Z,99825.44
2023-02-18T05:18:26.359Z,99811.00
2023-02-18T05:20:57.410Z,99825.34
2023-02-18T05:23:26.239Z,99831.25
2023-02-18T05:25:56.008Z,99834.66
2023-02-18T05:28:24.978Z,99829.66
2023-02-18T05:30:53.661Z,99829.69
2023-02-18T05:33:22.406Z,99833.03
2023-02-18T05:35:51.128Z,99832.19
2023-02-18T05:38:21.434Z,99829.63
2023-02-18T05:40:50.217Z,99833.00
2023-02-18T05:43:19.037Z,99838.84
2023-02-18T05:45:47.896Z,99844.66
2023-02-18T05:48:16.682Z,99846.28
2023-02-18T05:50:45.673Z,99843.00
2023-02-18T05:53:16.126Z,99836.16
2023-02-18T05:55:47.940Z,99847.22
2023-02-18T05:58:17.245Z,99844.69
2023-02-18T06:00:45.948Z,99848.00
2023-02-18T06:03:15.140Z,99841.19
2023-02-18T06:05:43.835Z,99844.59
2023-02-18T06:08:12.677Z,99853.09
2023-02-18T06:10:42.387Z,99844.63
2023-02-18T06:13:12.834Z,99839.59
2023-02-18T06:15:41.899Z,99844.75
2023-02-18T06:18:10.683Z,99840.53
2023-02-18T06:20:40.843Z,99844.78
2023-02-18T06:23:11.598Z,99860.91
2023-02-18T06:25:40.543Z,99854.94
2023-02-18T06:28:09.223Z,99862.50
2023-02-18T06:30:39.477Z,99849.72
2023-02-18T06:33:08.454Z,99859.06
2023-02-18T06:35:37.179Z,99852.28
2023-02-18T06:38:06.087Z,99849.78
2023-02-18T06:40:35.508Z,99849.84
2023-02-18T06:43:04.389Z,99841.47
2023-02-18T06:45:33.094Z,99853.41
2023-02-18T06:48:03.624Z,99849.22
2023-02-18T06:50:32.678Z,99851.78
2023-02-18T06:53:01.440Z,99853.53
2023-02-18T06:55:30.415Z,99851.09
2023-02-18T06:57:59.343Z,99853.69
2023-02-18T07:00:28.723Z,99855.44
2023-02-18T07:02:58.033Z,99849.56
2023-02-18T07:05:28.442Z,99861.47
2023-02-18T07:07:57.136Z,99856.38
2023-02-18T07:10:26.108Z,99853.03
2023-02-18T07:12:54.887Z,99858.97
2023-02-18T07:15:24.559Z,99862.38
2023-02-18T07:17:53.883Z,99872.59
2023-02-18T07:20:23.366Z,99865.84
2023-02-18T07:22:53.921Z,99872.63
2023-02-18T07:25:23.507Z,99850.47
2023-02-18T07:27:52.722Z,99872.63
2023-02-18T07:30:22.371Z,99876.03
2023-02-18T07:32:51.925Z,99869.22
2023-02-18T07:35:21.680Z,99868.34
2023-02-18T07:37:52.425Z,99867.53
2023-02-18T07:40:22.699Z,99881.16
2023-02-18T07:42:52.776Z,99877.81
2023-02-18T07:45:21.863Z,99880.34
2023-02-18T07:47:50.644Z,99862.56
2023-02-18T07:50:19.555Z,99871.94
2023-02-18T07:52:48.207Z,99870.22
2023-02-18T07:55:18.544Z,99863.44
2023-02-18T07:57:57.177Z,99862.63
2023-02-18T08:00:26.178Z,99859.25
2023-02-18T08:02:54.765Z,99871.19
2023-02-18T08:05:24.246Z,99861.00
2023-02-18T08:07:52.965Z,99862.75
2023-02-18T08:10:23.182Z,99857.63
2023-02-18T08:12:52.051Z,99853.38
2023-02-18T08:15:20.719Z,99852.53
2023-02-18T08:17:49.513Z,99850.84
2023-02-18T08:20:18.341Z,99847.44
2023-02-18T08:22:47.112Z,99840.63
2023-02-18T08:25:27.642Z,99839.75
2023-02-18T08:28:00.079Z,99845.75
2023-02-18T08:30:29.189Z,99838.91
2023-02-18T08:32:58.021Z,99837.19
2023-02-18T08:35:26.677Z,99842.31
2023-02-18T08:37:56.184Z,99838.84
2023-02-18T08:40:25.607Z,99837.16
2023-02-18T08:42:54.366Z,99844.81
2023-02-18T08:45:24.553Z,99845.66
2023-02-18T08:48:18.806Z,99848.25
2023-02-18T08:50:42.291Z,99840.56
2023-02-18T08:53:10.880Z,99845.66
2023-02-18T08:55:42.469Z,99852.53
2023-02-18T08:58:11.761Z,99857.63
2023-02-18T09:00:44.052Z,99852.53
2023-02-18T09:03:15.326Z,99855.94
2023-02-18T09:05:44.336Z,99860.19
2023-02-18T09:08:12.984Z,99861.06
2023-02-18T09:10:41.756Z,99849.13
2023-02-18T09:13:10.554Z,99852.53
2023-02-18T09:15:39.333Z,99847.44
2023-02-18T09:18:09.382Z,99844.03
2023-02-18T09:20:38.236Z,99848.28
2023-02-18T09:23:07.009Z,99849.13
2023-02-18T09:25:35.722Z,99851.69
2023-02-18T09:28:04.481Z,99851.69
2023-02-18T09:30:33.265Z,99847.44
2023-02-18T09:33:02.031Z,99844.03
2023-02-18T09:35:33.047Z,99844.03
2023-02-18T09:38:03.247Z,99842.34
2023-02-18T09:40:37.398Z,99838.06
2023-02-18T09:43:07.929Z,99838.06
2023-02-18T09:45:36.960Z,99838.94
2023-02-18T09:48:06.882Z,99842.34
2023-02-18T09:50:37.238Z,99845.72
2023-02-18T09:53:06.497Z,99838.91
2023-02-18T09:55:39.665Z,99840.63
2023-02-18T09:58:15.576Z,99832.13
2023-02-18T10:00:48.583Z,99841.47
2023-02-18T10:03:20.526Z,99831.25
2023-02-18T10:05:59.655Z,99823.56
2023-02-18T10:08:31.131Z,99820.09
2023-02-18T10:10:59.838Z,99823.50
2023-02-18T10:13:32.192Z,99825.22
2023-02-18T10:16:01.412Z,99821.78
2023-02-18T10:18:32.691Z,99816.63
2023-02-18T10:21:08.891Z,99814.91
2023-02-18T10:23:40.468Z,99804.63
2023-02-18T10:26:16.933Z,99801.22
2023-02-18T10:28:46.738Z,99804.63
2023-02-18T10:31:21.523Z,99801.22
2023-02-18T10:33:58.548Z,99795.22
2023-02-18T10:36:35.696Z,99796.97
2023-02-18T10:39:33.195Z,99789.28
2023-02-18T10:42:15.623Z,99785.03
2023-02-18T10:44:57.152Z,99785.91
2023-02-18T10:47:40.821Z,99776.53
2023-02-18T10:50:14.347Z,99773.97
2023-02-18T10:52:48.824Z,99759.50
2023-02-18T10:55:19.810Z,99767.16
2023-02-18T10:57:51.467Z,99768.03
2023-02-18T11:00:24.263Z,99771.44
2023-02-18T11:03:17.708Z,99775.69
2023-02-18T11:05:47.318Z,99760.34
2023-02-18T11:08:19.833Z,99775.72
2023-02-18T11:10:51.331Z,99768.91
2023-02-18T11:13:27.638Z,99763.81
2023-02-18T11:16:00.136Z,99761.28
2023-02-18T11:18:35.266Z,99765.59
2023-02-18T11:21:06.631Z,99761.34
2023-02-18T11:23:49.696Z,99748.59
2023-02-18T11:26:24.848Z,99757.13
2023-02-18T11:29:01.602Z,99750.31
2023-02-18T11:31:43.152Z,99729.91
2023-02-18T11:34:19.928Z,99732.50
2023-02-18T11:36:50.624Z,99726.53
2023-02-18T11:39:24.582Z,99724.84
2023-02-18T11:41:59.377Z,99727.41
2023-02-18T11:44:34.322Z,99727.41
2023-02-18T11:47:05.022Z,99729.94
2023-02-18T11:49:36.358Z,99721.44
2023-02-18T11:52:14.049Z,99708.66
2023-02-18T11:54:44.190Z,99712.94
2023-02-18T11:57:15.885Z,99709.53
2023-02-18T11:59:45.714Z,99701.88
2023-02-18T12:02:33.208Z,99706.13
2023-02-18T12:05:06.393Z,99702.75
2023-02-18T12:07:46.436Z,99697.63
2023-02-18T12:10:24.684Z,99693.41
2023-02-18T12:13:02.644Z,99686.59
2023-02-18T12:15:47.170Z,99687.44
2023-02-18T12:18:42.854Z,99672.16
2023-02-18T12:21:31.748Z,99666.19
2023-02-18T12:24:12.447Z,99666.19
2023-02-18T12:26:55.842Z,99661.97
2023-02-18T12:29:44.166Z,99652.59
2023-02-18T12:32:34.510Z,99653.44
2023-02-18T12:35:36.048Z,99653.44
2023-02-18T12:38:23.181Z,99651.72
2023-02-18T12:41:11.205Z,99644.06
2023-02-18T12:43:55.127Z,99634.69
2023-02-18T12:46:41.627Z,99635.56
2023-02-18T12:49:27.966Z,99623.66
2023-02-18T12:52:07.819Z,99625.34
2023-02-18T12:54:53.340Z,99607.53
2023-02-18T12:57:45.309Z,99597.31
2023-02-18T13:00:51.856Z,99598.16
2023-02-18T13:03:42.421Z,99599.03
2023-02-18T13:06:24.585Z,99603.25
2023-02-18T13:09:04.810Z,99599.88
2023-02-18T13:11:47.035Z,99587.94
2023-02-18T13:14:21.984Z,99570.94
2023-02-18T13:16:56.556Z,99576.03
2023-02-18T13:19:28.948Z,99568.38
2023-02-18T13:22:01.197Z,99566.66
2023-02-18T13:24:35.443Z,99546.22
2023-02-18T13:27:16.300Z,99539.41
2023-02-18T13:29:52.750Z,99541.13
2023-02-18T13:32:31.331Z,99526.69
2023-02-18T13:35:04.974Z,99536.00
2023-02-18T13:37:40.524Z,99519.88
2023-02-18T13:40:15.941Z,99517.34
2023-02-18T13:42:44.807Z,99512.22
2023-02-18T13:45:35.036Z,99510.50
2023-02-18T13:48:24.937Z,99505.41
2023-02-18T13:50:55.835Z,99504.56
2023-02-18T13:53:26.917Z,99489.22
2023-02-18T13:56:02.122Z,99468.00
2023-02-18T13:58:40.239Z,99484.97
2023-02-18T14:01:21.304Z,99478.13
2023-02-18T14:03:57.766Z,99467.06
2023-02-18T14:06:29.879Z,99468.75
2023-02-18T14:09:26.374Z,99460.22
2023-02-18T14:11:58.041Z,99459.34
2023-02-18T14:14:44.698Z,99454.19
2023-02-18T14:17:36.918Z,99444.81
2023-02-18T14:20:26.458Z,99440.53
2023-02-18T14:22:56.399Z,99442.25
2023-02-18T14:25:36.854Z,99446.50
2023-02-18T14:28:34.518Z,99438.00
2023-02-18T14:31:03.938Z,99434.63
2023-02-18T14:33:36.473Z,99437.19
2023-02-18T14:36:19.530Z,99434.66
2023-02-18T14:38:57.564Z,99428.72
2023-02-18T14:41:47.139Z,99425.31
2023-02-18T14:44:25.717Z,99420.25
2023-02-18T14:47:11.203Z,99415.16
2023-02-18T14:49:44.717Z,99423.66
2023-02-18T14:52:25.039Z,99418.56
2023-02-18T14:54:55.582Z,99414.31
2023-02-18T14:57:38.759Z,99399.88
2023-02-18T15:00:09.741Z,99412.56
2023-02-18T15:02:40.226Z,99408.28
2023-02-18T15:05:18.104Z,99408.22
2023-02-18T15:08:00.904Z,99405.66
2023-02-18T15:10:39.326Z,99404.75
2023-02-18T15:13:16.224Z,99404.59
2023-02-18T15:15:46.797Z,99403.69
2023-02-18T15:18:23.243Z,99401.03
2023-02-18T15:20:52.825Z,99404.38
2023-02-18T15:23:21.429Z,99390.69
2023-02-18T15:25:55.642Z,99390.66
2023-02-18T15:28:29.249Z,99390.59
2023-02-18T15:30:59.666Z,99382.09
2023-02-18T15:33:29.167Z,99380.34
2023-02-18T15:36:03.238Z,99371.75
2023-02-18T15:38:32.985Z,99381.13
2023-02-18T15:41:04.160Z,99378.56
2023-02-18T15:43:35.498Z,99376.84
2023-02-18T15:46:15.273Z,99372.59
2023-02-18T15:48:48.710Z,99383.69
2023-02-18T15:51:23.435Z,99380.34
2023-02-18T15:53:55.485Z,99381.22
2023-02-18T15:56:32.518Z,99382.19
2023-02-18T15:59:17.380Z,99372.00
2023-02-18T16:01:51.337Z,99374.56
2023-02-18T16:04:21.603Z,99360.13
2023-02-18T16:06:52.551Z,99363.59
2023-02-18T16:09:24.892Z,99362.84
2023-02-18T16:11:59.727Z,99355.25
2023-02-18T16:14:33.380Z,99356.16
2023-02-18T16:17:17.087Z,99340.09
2023-02-18T16:20:03.983Z,99357.97
2023-02-18T16:22:39.075Z,99357.13
2023-02-18T16:25:18.176Z,99348.59
2023-02-18T16:27:55.529Z,99336.75
2023-02-18T16:30:27.100Z,99341.81
2023-02-18T16:32:56.209Z,99329.88
2023-02-18T16:35:25.519Z,99335.00
2023-02-18T16:37:55.407Z,99323.94
2023-02-18T16:40:28.155Z,99320.50
2023-02-18T16:43:01.095Z,99315.34
2023-02-18T16:45:38.288Z,99329.81
2023-02-18T16:48:07.799Z,99335.78
2023-02-18T16:50:36.692Z,99336.59
2023-02-18T16:53:05.447Z,99331.44
2023-02-18T16:55:34.296Z,99331.44
2023-02-18T16:58:04.433Z,99334.81
2023-02-18T17:00:33.654Z,99344.19
2023-02-18T17:03:03.002Z,99345.94
2023-02-18T17:05:35.693Z,99339.97
2023-02-18T17:08:18.952Z,99340.00
2023-02-18T17:10:49.637Z,99344.25
2023-02-18T17:13:21.634Z,99350.25
2023-02-18T17:15:53.682Z,99363.91
2023-02-18T17:18:24.063Z,99364.81
2023-02-18T17:20:54.189Z,99365.69
2023-02-18T17:23:25.384Z,99365.69
2023-02-18T17:25:54.653Z,99363.13
2023-02-18T17:28:24.872Z,99363.09
2023-02-18T17:30:58.316Z,99363.91
2023-02-18T17:33:27.514Z,99353.66
2023-02-18T17:35:56.108Z,99351.09
2023-02-18T17:38:25.076Z,99350.19
2023-02-18T17:40:53.895Z,99345.06
2023-02-18T17:43:25.689Z,99355.31
2023-02-18T17:45:57.688Z,99351.06
2023-02-18T17:48:26.785Z,99363.88
2023-02-18T17:50:55.764Z,99358.78
2023-02-18T17:53:25.169Z,99346.06
2023-02-18T17:55:54.348Z,99354.53
2023-02-18T17:58:23.180Z,99344.19
2023-02-18T18:00:54.200Z,99353.47
2023-02-18T18:03:24.774Z,99353.44
2023-02-18T18:05:54.780Z,99361.09
2023-02-18T18:08:23.486Z,99352.56
2023-02-18T18:10:56.070Z,99351.72
2023-02-18T18:13:27.162Z,99358.53
2023-02-18T18:15:58.058Z,99361.94
2023-02-18T18:18:29.362Z,99377.28
2023-02-18T18:21:01.426Z,99365.31
2023-02-18T18:23:30.316Z,99368.69
2023-02-18T18:26:00.271Z,99368.69
2023-02-18T18:28:33.116Z,99371.19
2023-02-18T18:31:02.923Z,99367.75
2023-02-18T18:33:35.998Z,99371.94
2023-02-18T18:36:05.162Z,99360.75
2023-02-18T18:38:34.218Z,99366.56
2023-02-18T18:41:03.016Z,99365.69
2023-02-18T18:43:33.488Z,99362.22
2023-02-18T18:46:02.541Z,99362.25
2023-02-18T18:48:32.731Z,99373.16
2023-02-18T18:51:02.622Z,99358.59
2023-02-18T18:53:33.106Z,99355.16
2023-02-18T18:56:04.128Z,99363.63
2023-02-18T18:58:33.213Z,99356.84
2023-02-18T19:01:07.353Z,99366.28
2023-02-18T19:03:38.938Z,99375.69
2023-02-18T19:06:07.729Z,99374.91
2023-02-18T19:08:36.403Z,99380.06
2023-02-18T19:11:05.491Z,99386.94
2023-02-18T19:13:36.247Z,99386.06
2023-02-18T19:16:09.822Z,99395.47
2023-02-18T19:18:40.216Z,99399.81
2023-02-18T19:21:09.600Z,99395.50
2023-02-18T19:23:38.451Z,99398.94
2023-02-18T19:26:07.377Z,99407.47
2023-02-18T19:28:36.188Z,99412.66
2023-02-18T19:31:09.885Z,99416.97
2023-02-18T19:33:41.091Z,99406.72
2023-02-18T19:36:11.646Z,99420.38
2023-02-18T19:38:40.484Z,99427.19
2023-02-18T19:41:12.511Z,99433.19
2023-02-18T19:43:42.008Z,99435.75
2023-02-18T19:46:11.827Z,99443.44
2023-02-18T19:48:42.702Z,99450.31
2023-02-18T19:51:11.846Z,99461.41
2023-02-18T19:53:40.986Z,99465.66
2023-02-18T19:56:09.669Z,99467.34
2023-02-18T19:58:40.362Z,99445.25
2023-02-18T20:01:13.563Z,99439.28
2023-02-18T20:03:44.764Z,99441.97
2023-02-18T20:06:17.561Z,99443.63
2023-02-18T20:08:46.895Z,99445.28
2023-02-18T20:11:15.622Z,99450.41
2023-02-18T20:13:45.116Z,99457.22
2023-02-18T20:16:13.894Z,99460.63
2023-02-18T20:18:44.152Z,99464.00
2023-02-18T20:21:13.244Z,99469.16
2023-02-18T20:23:42.504Z,99482.78
2023-02-18T20:26:12.216Z,99481.06
2023-02-18T20:28:41.100Z,99477.59
2023-02-18T20:31:12.781Z,99475.94
2023-02-18T20:33:44.646Z,99478.50
2023-02-18T20:36:15.632Z,99476.84
2023-02-18T20:38:44.680Z,99487.06
2023-02-18T20:41:17.632Z,99500.69
2023-02-18T20:43:46.772Z,99502.44
2023-02-18T20:46:17.218Z,99499.84
2023-02-18T20:48:48.270Z,99512.63
2023-02-18T20:51:19.428Z,99516.06
2023-02-18T20:53:49.083Z,99523.75
2023-02-18T20:56:20.982Z,99523.75
2023-02-18T20:58:49.954Z,99519.53
2023-02-18T21:01:20.472Z,99511.88
2023-02-18T21:03:51.266Z,99525.50
2023-02-18T21:06:22.913Z,99522.09
2023-02-18T21:08:54.955Z,99520.44
2023-02-18T21:11:26.443Z,99522.13
2023-02-18T21:13:57.268Z,99521.28
2023-02-18T21:16:28.742Z,99523.81
2023-02-18T21:18:58.897Z,99532.31
2023-02-18T21:21:28.436Z,99537.47
2023-02-18T21:23:57.271Z,99534.03
2023-02-18T21:26:27.829Z,99534.09
2023-02-18T21:28:58.891Z,99536.69
2023-02-18T21:31:30.945Z,99542.66
2023-02-18T21:34:01.491Z,99553.72
2023-02-18T21:36:32.990Z,99553.72
2023-02-18T21:39:03.613Z,99554.59
2023-02-18T21:41:34.328Z,99559.72
2023-02-18T21:44:03.593Z,99557.16
2023-02-18T21:46:34.363Z,99556.31
2023-02-18T21:49:09.996Z,99560.56
2023-02-18T21:51:52.798Z,99563.16
2023-02-18T21:54:23.980Z,99563.16
2023-02-18T21:56:53.375Z,99559.75
2023-02-18T21:59:23.683Z,99562.34
2023-02-18T22:01:52.455Z,99570.88
2023-02-18T22:04:23.054Z,99570.06
2023-02-18T22:06:52.249Z,99574.34
2023-02-18T22:09:21.033Z,99568.38
2023-02-18T22:11:49.877Z,99576.03
2023-02-18T22:14:18.995Z,99580.28
2023-02-18T22:16:48.269Z,99581.97
2023-02-18T22:19:16.999Z,99583.72
2023-02-18T22:21:47.480Z,99595.63
2023-02-18T22:24:17.962Z,99595.63
2023-02-18T22:26:48.783Z,99595.66
2023-02-18T22:29:19.672Z,99595.63
2023-02-18T22:31:49.769Z,99591.38
2023-02-18T22:34:18.737Z,99593.91
2023-02-18T22:36:49.141Z,99598.16
2023-02-18T22:39:18.357Z,99603.25
2023-02-18T22:41:47.071Z,99592.22
2023-02-18T22:44:18.556Z,99592.19
2023-02-18T22:46:47.573Z,99605.75
2023-02-18T22:49:16.351Z,99597.25
2023-02-18T22:51:46.332Z,99607.47
2023-02-18T22:54:18.602Z,99607.47
2023-02-18T22:56:49.880Z,99607.41
2023-02-18T22:59:20.006Z,99597.19
2023-02-18T23:01:50.667Z,99607.44
2023-02-18T23:04:20.925Z,99621.09
2023-02-18T23:06:50.782Z,99633.03
2023-02-18T23:09:22.981Z,99616.88
2023-02-18T23:11:52.902Z,99627.06
2023-02-18T23:14:22.719Z,99615.97
2023-02-18T23:17:04.502Z,99621.94
2023-02-18T23:19:34.202Z,99621.97
2023-02-18T23:22:02.671Z,99626.22
2023-02-18T23:24:35.073Z,99627.09
2023-02-18T23:27:04.497Z,99634.75
2023-02-18T23:29:33.695Z,99626.25
2023-02-18T23:32:02.966Z,99616.91
2023-02-18T23:34:31.774Z,99617.72
2023-02-18T23:37:00.678Z,99627.91
2023-02-18T23:39:30.125Z,99612.56
2023-02-18T23:42:00.412Z,99608.31
2023-02-18T23:44:29.717Z,99624.50
2023-02-18T23:46:58.400Z,99615.13
2023-02-18T23:49:29.070Z,99608.34
2023-02-18T23:51:58.850Z,99609.22
2023-02-18T23:54:27.716Z,99609.22
2023-02-18T23:56:56.473Z,99605.84
2023-02-18T23:59:26.695Z,99599.06
